JBU233 KBOS-KSFO
Flight info
| Callsign | JBU233 |
|---|---|
| Flight time | N/A |
| Altitude | 34000 |
| Route | HYLND7 HYLND NOVON SSM DLH FAR KP09Y BIL KU90O REO HOLLR LEGGS BDEGA4 |
| Aircraft | A321/M-SDE3FGHIRWY/LB1 |
Departure
| Time | 2026-05-08 06:26 |
|---|---|
| Airport | Boston Logan International Airport (KBOS) |
Arrival
| Time | N/A |
|---|---|
| Airport | San Francisco International Airport (KSFO) |
| Time | Latitude | Longitude | Altitude | Speed | Heading |
|---|---|---|---|---|---|
| 2026-05-08 05:51 | 42.36811 | -71.01769 | 26 ft | 0 kts | 242° |
| 2026-05-08 06:08 | 42.36813 | -71.01765 | 25 ft | 3 kts | 242° |
| 2026-05-08 06:08 | 42.36823 | -71.01739 | 27 ft | 2 kts | 242° |
| 2026-05-08 06:09 | 42.36838 | -71.01712 | 31 ft | 4 kts | 214° |
| 2026-05-08 06:09 | 42.36862 | -71.01695 | 31 ft | 4 kts | 208° |
| 2026-05-08 06:09 | 42.36880 | -71.01680 | 28 ft | 4 kts | 213° |
| 2026-05-08 06:09 | 42.36903 | -71.01660 | 30 ft | 4 kts | 213° |
| 2026-05-08 06:10 | 42.36925 | -71.01640 | 29 ft | 4 kts | 213° |
| 2026-05-08 06:10 | 42.36948 | -71.01619 | 28 ft | 4 kts | 213° |
| 2026-05-08 06:10 | 42.36969 | -71.01601 | 27 ft | 3 kts | 213° |
| 2026-05-08 06:10 | 42.36992 | -71.01585 | 29 ft | 4 kts | 189° |
| 2026-05-08 06:11 | 42.37017 | -71.01587 | 30 ft | 4 kts | 153° |
| 2026-05-08 06:11 | 42.37036 | -71.01607 | 29 ft | 4 kts | 135° |
| 2026-05-08 06:11 | 42.37053 | -71.01629 | 30 ft | 1 kts | 135° |
| 2026-05-08 06:13 | 42.37042 | -71.01614 | 29 ft | 5 kts | 135° |
| 2026-05-08 06:14 | 42.37002 | -71.01561 | 30 ft | 11 kts | 135° |
| 2026-05-08 06:14 | 42.36950 | -71.01484 | 26 ft | 11 kts | 133° |
| 2026-05-08 06:14 | 42.36895 | -71.01412 | 28 ft | 11 kts | 136° |
| 2026-05-08 06:14 | 42.36842 | -71.01342 | 25 ft | 11 kts | 136° |
| 2026-05-08 06:15 | 42.36789 | -71.01274 | 27 ft | 10 kts | 140° |
| 2026-05-08 06:15 | 42.36722 | -71.01244 | 26 ft | 10 kts | 184° |
| 2026-05-08 06:15 | 42.36652 | -71.01265 | 27 ft | 10 kts | 197° |
| 2026-05-08 06:15 | 42.36584 | -71.01296 | 25 ft | 10 kts | 202° |
| 2026-05-08 06:16 | 42.36520 | -71.01333 | 28 ft | 10 kts | 203° |
| 2026-05-08 06:16 | 42.36457 | -71.01370 | 29 ft | 10 kts | 203° |
| 2026-05-08 06:16 | 42.36392 | -71.01397 | 27 ft | 9 kts | 177° |
| 2026-05-08 06:16 | 42.36349 | -71.01338 | 30 ft | 9 kts | 122° |
| 2026-05-08 06:17 | 42.36283 | -71.01196 | 27 ft | 9 kts | 122° |
| 2026-05-08 06:17 | 42.36252 | -71.01124 | 27 ft | 9 kts | 116° |
| 2026-05-08 06:17 | 42.36224 | -71.01040 | 28 ft | 12 kts | 114° |
| 2026-05-08 06:18 | 42.36189 | -71.00935 | 25 ft | 12 kts | 114° |
| 2026-05-08 06:18 | 42.36153 | -71.00830 | 29 ft | 12 kts | 114° |
| 2026-05-08 06:18 | 42.36123 | -71.00729 | 29 ft | 11 kts | 109° |
| 2026-05-08 06:18 | 42.36099 | -71.00631 | 29 ft | 11 kts | 108° |
| 2026-05-08 06:19 | 42.36072 | -71.00529 | 26 ft | 11 kts | 110° |
| 2026-05-08 06:19 | 42.36046 | -71.00428 | 28 ft | 11 kts | 109° |
| 2026-05-08 06:19 | 42.36020 | -71.00330 | 26 ft | 11 kts | 109° |
| 2026-05-08 06:19 | 42.35995 | -71.00233 | 29 ft | 11 kts | 109° |
| 2026-05-08 06:20 | 42.35970 | -71.00136 | 29 ft | 11 kts | 111° |
| 2026-05-08 06:20 | 42.35932 | -71.00053 | 26 ft | 11 kts | 130° |
| 2026-05-08 06:20 | 42.35869 | -70.99965 | 26 ft | 14 kts | 135° |
| 2026-05-08 06:20 | 42.35803 | -70.99877 | 25 ft | 13 kts | 135° |
| 2026-05-08 06:21 | 42.35738 | -70.99791 | 28 ft | 13 kts | 135° |
| 2026-05-08 06:21 | 42.35675 | -70.99707 | 30 ft | 13 kts | 135° |
| 2026-05-08 06:21 | 42.35612 | -70.99624 | 25 ft | 12 kts | 135° |
| 2026-05-08 06:21 | 42.35551 | -70.99543 | 31 ft | 12 kts | 135° |
| 2026-05-08 06:22 | 42.35496 | -70.99464 | 30 ft | 11 kts | 122° |
| 2026-05-08 06:22 | 42.35493 | -70.99384 | 25 ft | 2 kts | 72° |
| 2026-05-08 06:22 | 42.35499 | -70.99354 | 25 ft | 6 kts | 75° |
| 2026-05-08 06:22 | 42.35504 | -70.99281 | 25 ft | 9 kts | 89° |
| 2026-05-08 06:23 | 42.35542 | -70.99269 | 26 ft | 6 kts | 329° |
| 2026-05-08 06:23 | 42.35554 | -70.99284 | 25 ft | 0 kts | 316° |
| 2026-05-08 06:24 | 42.35554 | -70.99285 | 25 ft | 0 kts | 316° |
| 2026-05-08 06:25 | 42.35568 | -70.99303 | 29 ft | 20 kts | 316° |
| 2026-05-08 06:25 | 42.35848 | -70.99679 | 26 ft | 91 kts | 315° |
| 2026-05-08 06:25 | 42.36442 | -71.00474 | 26 ft | 147 kts | 315° |
| 2026-05-08 06:25 | 42.37275 | -71.01589 | 204 ft | 181 kts | 315° |
| 2026-05-08 06:26 | 42.38171 | -71.02786 | 851 ft | 186 kts | 315° |
| 2026-05-08 06:26 | 42.39106 | -71.04037 | 1668 ft | 186 kts | 314° |
| 2026-05-08 06:26 | 42.39893 | -71.05491 | 1874 ft | 204 kts | 303° |
| 2026-05-08 06:26 | 42.40595 | -71.07261 | 1925 ft | 229 kts | 298° |
| 2026-05-08 06:27 | 42.41383 | -71.09213 | 2287 ft | 240 kts | 310° |
| 2026-05-08 06:27 | 42.42714 | -71.10536 | 2905 ft | 241 kts | 334° |
| 2026-05-08 06:27 | 42.44276 | -71.11492 | 3527 ft | 244 kts | 335° |
| 2026-05-08 06:27 | 42.45831 | -71.12372 | 4118 ft | 246 kts | 336° |
| 2026-05-08 06:28 | 42.47449 | -71.13259 | 4730 ft | 250 kts | 336° |
| 2026-05-08 06:28 | 42.49048 | -71.14128 | 5318 ft | 251 kts | 336° |
| 2026-05-08 06:28 | 42.50698 | -71.15022 | 5941 ft | 252 kts | 335° |
| 2026-05-08 06:28 | 42.52320 | -71.15858 | 6560 ft | 253 kts | 338° |
| 2026-05-08 06:29 | 42.54014 | -71.16642 | 7160 ft | 255 kts | 338° |
| 2026-05-08 06:29 | 42.55688 | -71.17385 | 7726 ft | 257 kts | 338° |
| 2026-05-08 06:29 | 42.57397 | -71.18137 | 8290 ft | 259 kts | 337° |
| 2026-05-08 06:29 | 42.59122 | -71.18903 | 8850 ft | 261 kts | 337° |
| 2026-05-08 06:30 | 42.60855 | -71.19679 | 9422 ft | 263 kts | 336° |
| 2026-05-08 06:30 | 42.62601 | -71.20465 | 9961 ft | 265 kts | 336° |
| 2026-05-08 06:30 | 42.64381 | -71.21275 | 10239 ft | 278 kts | 336° |
| 2026-05-08 06:30 | 42.66267 | -71.22144 | 10398 ft | 294 kts | 336° |
| 2026-05-08 06:31 | 42.68259 | -71.23064 | 10527 ft | 311 kts | 336° |
| 2026-05-08 06:31 | 42.70356 | -71.24031 | 10657 ft | 326 kts | 336° |
| 2026-05-08 06:31 | 42.72556 | -71.25039 | 10789 ft | 341 kts | 336° |
| 2026-05-08 06:31 | 42.74755 | -71.26361 | 10919 ft | 350 kts | 326° |
| 2026-05-08 06:32 | 42.76418 | -71.27955 | 11096 ft | 354 kts | 315° |
| 2026-05-08 06:32 | 42.77633 | -71.29611 | 11371 ft | 355 kts | 307° |
| 2026-05-08 06:32 | 42.79020 | -71.32381 | 11829 ft | 355 kts | 295° |
| 2026-05-08 06:32 | 42.79943 | -71.35503 | 12284 ft | 357 kts | 285° |
| 2026-05-08 06:33 | 42.80681 | -71.38700 | 12757 ft | 360 kts | 285° |
| 2026-05-08 06:33 | 42.81437 | -71.41967 | 13246 ft | 363 kts | 285° |
| 2026-05-08 06:33 | 42.82202 | -71.45269 | 13725 ft | 367 kts | 285° |
| 2026-05-08 06:33 | 42.82971 | -71.48593 | 14163 ft | 370 kts | 285° |
| 2026-05-08 06:34 | 42.83493 | -71.50856 | 14487 ft | 371 kts | 284° |
| 2026-05-08 06:34 | 42.84258 | -71.54181 | 14972 ft | 373 kts | 284° |
| 2026-05-08 06:34 | 42.85034 | -71.57559 | 15482 ft | 374 kts | 284° |
| 2026-05-08 06:34 | 42.85810 | -71.60948 | 16000 ft | 375 kts | 284° |
| 2026-05-08 06:35 | 42.86588 | -71.64347 | 16469 ft | 376 kts | 284° |
| 2026-05-08 06:35 | 42.87368 | -71.67762 | 16913 ft | 379 kts | 284° |
| 2026-05-08 06:35 | 42.87840 | -71.69827 | 17164 ft | 380 kts | 284° |
| 2026-05-08 06:35 | 42.88042 | -71.70711 | 17266 ft | 381 kts | 284° |
| 2026-05-08 06:36 | 42.90958 | -71.83504 | 18694 ft | 389 kts | 283° |
| 2026-05-08 06:37 | 42.91757 | -71.87026 | 19059 ft | 390 kts | 283° |
| 2026-05-08 06:37 | 42.92562 | -71.90575 | 19427 ft | 391 kts | 282° |
| 2026-05-08 06:37 | 42.93365 | -71.94133 | 19826 ft | 392 kts | 283° |
| 2026-05-08 06:37 | 42.94168 | -71.97698 | 20192 ft | 394 kts | 282° |
| 2026-05-08 06:38 | 42.94974 | -72.01279 | 20545 ft | 395 kts | 282° |
| 2026-05-08 06:38 | 42.95781 | -72.04867 | 20896 ft | 397 kts | 282° |
| 2026-05-08 06:38 | 42.96582 | -72.08430 | 21240 ft | 398 kts | 282° |
| 2026-05-08 06:38 | 42.97399 | -72.12058 | 21583 ft | 399 kts | 281° |
| 2026-05-08 06:39 | 42.98215 | -72.15691 | 21929 ft | 401 kts | 281° |
| 2026-05-08 06:39 | 42.99033 | -72.19351 | 22264 ft | 402 kts | 281° |
| 2026-05-08 06:39 | 42.99848 | -72.23009 | 22588 ft | 403 kts | 280° |
| 2026-05-08 06:39 | 43.00666 | -72.26683 | 22938 ft | 405 kts | 281° |
| 2026-05-08 06:40 | 43.01482 | -72.30367 | 23240 ft | 406 kts | 281° |
| 2026-05-08 06:40 | 43.02306 | -72.34078 | 23520 ft | 408 kts | 281° |
| 2026-05-08 06:40 | 43.03120 | -72.37752 | 23751 ft | 410 kts | 281° |
| 2026-05-08 06:40 | 43.03947 | -72.41491 | 23992 ft | 411 kts | 281° |
| 2026-05-08 06:41 | 43.04775 | -72.45243 | 24232 ft | 413 kts | 281° |
| 2026-05-08 06:41 | 43.05603 | -72.49011 | 24475 ft | 414 kts | 281° |
| 2026-05-08 06:41 | 43.06432 | -72.52790 | 24705 ft | 416 kts | 281° |
| 2026-05-08 06:41 | 43.07266 | -72.56587 | 24936 ft | 417 kts | 281° |
| 2026-05-08 06:42 | 43.08103 | -72.60391 | 25274 ft | 417 kts | 281° |
| 2026-05-08 06:42 | 43.08937 | -72.64188 | 25577 ft | 418 kts | 282° |
| 2026-05-08 06:42 | 43.09772 | -72.68006 | 25812 ft | 419 kts | 282° |
| 2026-05-08 06:42 | 43.10605 | -72.71833 | 26095 ft | 420 kts | 282° |
| 2026-05-08 06:43 | 43.11423 | -72.75594 | 26404 ft | 419 kts | 282° |
| 2026-05-08 06:43 | 43.12260 | -72.79433 | 26728 ft | 419 kts | 282° |
| 2026-05-08 06:43 | 43.13090 | -72.83246 | 27022 ft | 418 kts | 281° |
| 2026-05-08 06:43 | 43.13915 | -72.87056 | 27323 ft | 417 kts | 281° |
| 2026-05-08 06:44 | 43.14736 | -72.90862 | 27620 ft | 417 kts | 281° |
| 2026-05-08 06:44 | 43.15556 | -72.94672 | 27913 ft | 416 kts | 281° |
| 2026-05-08 06:44 | 43.16373 | -72.98476 | 28184 ft | 417 kts | 282° |
| 2026-05-08 06:44 | 43.17190 | -73.02289 | 28425 ft | 418 kts | 282° |
| 2026-05-08 06:45 | 43.18009 | -73.06111 | 28700 ft | 418 kts | 282° |
| 2026-05-08 06:45 | 43.18829 | -73.09935 | 28967 ft | 418 kts | 282° |
| 2026-05-08 06:45 | 43.19646 | -73.13761 | 29232 ft | 418 kts | 281° |
| 2026-05-08 06:45 | 43.20462 | -73.17588 | 29504 ft | 417 kts | 281° |
| 2026-05-08 06:46 | 43.21276 | -73.21405 | 29778 ft | 417 kts | 281° |
| 2026-05-08 06:46 | 43.22089 | -73.25216 | 30033 ft | 416 kts | 281° |
| 2026-05-08 06:46 | 43.22897 | -73.29028 | 30261 ft | 416 kts | 281° |
| 2026-05-08 06:46 | 43.23702 | -73.32837 | 30498 ft | 416 kts | 282° |
| 2026-05-08 06:47 | 43.24507 | -73.36643 | 30701 ft | 416 kts | 282° |
| 2026-05-08 06:47 | 43.25302 | -73.40409 | 30888 ft | 416 kts | 282° |
| 2026-05-08 06:47 | 43.26104 | -73.44216 | 31097 ft | 415 kts | 282° |
| 2026-05-08 06:47 | 43.26906 | -73.48026 | 31287 ft | 415 kts | 282° |
| 2026-05-08 06:48 | 43.27706 | -73.51834 | 31484 ft | 415 kts | 282° |
| 2026-05-08 06:48 | 43.28505 | -73.55641 | 31675 ft | 415 kts | 282° |
| 2026-05-08 06:48 | 43.29300 | -73.59445 | 31848 ft | 415 kts | 282° |
| 2026-05-08 06:48 | 43.30095 | -73.63254 | 31902 ft | 417 kts | 282° |
| 2026-05-08 06:49 | 43.31689 | -73.70914 | 31904 ft | 417 kts | 283° |
| 2026-05-08 06:49 | 43.33279 | -73.78584 | 31908 ft | 418 kts | 282° |
| 2026-05-08 06:50 | 43.34864 | -73.86264 | 31910 ft | 417 kts | 282° |
| 2026-05-08 06:50 | 43.36449 | -73.93936 | 31915 ft | 417 kts | 282° |
| 2026-05-08 06:51 | 43.38023 | -74.01621 | 31943 ft | 418 kts | 283° |
| 2026-05-08 06:51 | 43.39585 | -74.09283 | 31947 ft | 418 kts | 283° |
| 2026-05-08 06:52 | 43.41147 | -74.16990 | 31945 ft | 418 kts | 283° |
| 2026-05-08 06:52 | 43.42706 | -74.24694 | 31947 ft | 418 kts | 283° |
| 2026-05-08 06:53 | 43.44260 | -74.32400 | 31945 ft | 417 kts | 283° |
| 2026-05-08 06:53 | 43.45800 | -74.40032 | 31962 ft | 417 kts | 283° |
| 2026-05-08 06:54 | 43.46910 | -74.45551 | 31962 ft | 417 kts | 283° |
| 2026-05-08 06:54 | 43.48449 | -74.53246 | 31951 ft | 417 kts | 283° |
| 2026-05-08 06:55 | 43.49983 | -74.60949 | 31950 ft | 417 kts | 283° |
| 2026-05-08 06:55 | 43.51507 | -74.68659 | 31949 ft | 417 kts | 283° |
| 2026-05-08 06:56 | 43.53027 | -74.76365 | 31946 ft | 417 kts | 283° |
| 2026-05-08 06:56 | 43.54535 | -74.84032 | 31951 ft | 417 kts | 283° |
| 2026-05-08 06:57 | 43.56047 | -74.91747 | 31947 ft | 416 kts | 283° |
| 2026-05-08 06:57 | 43.57310 | -74.98204 | 31947 ft | 416 kts | 283° |
| 2026-05-08 06:58 | 43.58808 | -75.05869 | 31963 ft | 416 kts | 283° |
| 2026-05-08 06:58 | 43.60305 | -75.13600 | 31950 ft | 417 kts | 283° |
| 2026-05-08 06:59 | 43.61795 | -75.21335 | 31949 ft | 417 kts | 283° |
| 2026-05-08 06:59 | 43.63283 | -75.29069 | 31942 ft | 417 kts | 283° |
| 2026-05-08 07:00 | 43.64769 | -75.36800 | 31937 ft | 417 kts | 283° |
| 2026-05-08 07:00 | 43.66235 | -75.44491 | 31941 ft | 417 kts | 283° |
| 2026-05-08 07:01 | 43.67700 | -75.52241 | 31938 ft | 417 kts | 283° |
| 2026-05-08 07:01 | 43.69166 | -75.59995 | 31941 ft | 417 kts | 283° |
| 2026-05-08 07:02 | 43.70631 | -75.67740 | 31941 ft | 416 kts | 283° |
| 2026-05-08 07:02 | 43.72087 | -75.75495 | 31941 ft | 416 kts | 283° |
| 2026-05-08 07:03 | 43.73526 | -75.83198 | 31951 ft | 417 kts | 283° |
| 2026-05-08 07:03 | 43.74970 | -75.90965 | 31940 ft | 417 kts | 283° |
| 2026-05-08 07:04 | 43.76411 | -75.98733 | 31944 ft | 417 kts | 283° |
| 2026-05-08 07:04 | 43.77845 | -76.06515 | 31939 ft | 417 kts | 283° |
| 2026-05-08 07:05 | 43.79276 | -76.14286 | 31938 ft | 417 kts | 283° |
| 2026-05-08 07:05 | 43.80693 | -76.22062 | 31936 ft | 417 kts | 283° |
| 2026-05-08 07:06 | 43.82109 | -76.29848 | 31933 ft | 417 kts | 283° |
| 2026-05-08 07:06 | 43.83527 | -76.37636 | 31936 ft | 417 kts | 283° |
| 2026-05-08 07:07 | 43.84935 | -76.45430 | 31944 ft | 417 kts | 283° |
| 2026-05-08 07:07 | 43.86342 | -76.53234 | 31949 ft | 417 kts | 283° |
| 2026-05-08 07:08 | 43.87889 | -76.60972 | 31950 ft | 417 kts | 291° |
| 2026-05-08 07:08 | 43.90506 | -76.68172 | 31957 ft | 418 kts | 296° |
| 2026-05-08 07:09 | 43.93191 | -76.75275 | 31953 ft | 418 kts | 295° |
| 2026-05-08 07:09 | 43.95883 | -76.82436 | 31955 ft | 418 kts | 295° |